Time;durP1;ratioP1;P1;durP2;ratioP2;P2;SDS_P1;SDS_P2;PMS_P1;PMS_P2;Temp;Humidity;BMP_temperature;BMP_pressure;BME280_temperature;BME280_humidity;BME280_pressure;Samples;Min_cycle;Max_cycle;Signal;HPM_P1;HPM_P2
2022/01/25 00:28:28;;;;;;;76.38;48.47;;;;;;;3.52;100.00;102917.38;4996497;28;20030;-83
2022/01/25 00:33:31;;;;;;;77.22;47.47;;;;;;;3.50;100.00;102913.91;5001835;28;20046;-83
2022/01/25 00:36:05;;;;;;;81.63;48.92;;;;;;;3.51;100.00;102915.66;5000847;28;20041;-85
2022/01/25 00:38:32;;;;;;;76.13;48.05;;;;;;;3.49;100.00;102911.34;4997572;28;20057;-84
2022/01/25 00:40:59;;;;;;;77.25;48.47;;;;;;;3.48;100.00;102912.25;5001879;28;20128;-84
2022/01/25 00:43:27;;;;;;;79.75;47.33;;;;;;;3.49;100.00;102914.84;4997270;28;20057;-84
2022/01/25 00:45:57;;;;;;;76.10;46.95;;;;;;;3.48;100.00;102914.91;5006905;28;20048;-84
2022/01/25 00:56:45;;;;;;;72.55;47.10;;;;;;;3.43;100.00;102908.94;4960676;28;20047;-85
2022/01/25 00:59:31;;;;;;;75.32;46.97;;;;;;;3.42;100.00;102905.41;4998272;28;20043;-84
2022/01/25 01:02:00;;;;;;;77.22;45.10;;;;;;;3.42;100.00;102905.41;4998985;28;20046;-85
2022/01/25 01:04:32;;;;;;;75.10;46.42;;;;;;;3.38;100.00;102904.69;4998419;28;20034;-84
2022/01/25 01:07:02;;;;;;;76.18;46.00;;;;;;;3.36;100.00;102910.97;4999408;28;20148;-84
2022/01/25 01:09:33;;;;;;;80.65;43.72;;;;;;;3.35;100.00;102912.78;4999944;28;20041;-85
2022/01/25 01:12:03;;;;;;;73.25;46.53;;;;;;;3.33;100.00;102905.81;4996576;28;20062;-84
2022/01/25 01:15:01;;;;;;;71.18;41.95;;;;;;;3.38;100.00;102902.03;5002194;28;20065;-85
2022/01/25 01:41:54;;;;;;;72.03;43.90;;;;;;;3.49;100.00;102892.75;4999007;28;20371;-84
2022/01/25 01:44:38;;;;;;;76.78;43.92;;;;;;;3.49;100.00;102887.44;4995361;28;20402;-84
2022/01/25 01:47:09;;;;;;;74.45;46.60;;;;;;;3.46;100.00;102890.22;5001233;28;20030;-84
2022/01/25 01:49:44;;;;;;;75.72;45.72;;;;;;;3.39;100.00;102890.50;4987339;28;20046;-83
2022/01/25 01:52:11;;;;;;;75.43;46.30;;;;;;;3.39;100.00;102905.53;4976635;28;20049;-84
2022/01/25 01:54:38;;;;;;;74.15;42.83;;;;;;;3.42;100.00;102896.59;4995525;28;20038;-85
2022/01/25 01:57:06;;;;;;;77.18;40.42;;;;;;;3.36;100.00;102890.59;4989241;28;20050;-84
2022/01/25 01:59:32;;;;;;;74.03;44.50;;;;;;;3.43;100.00;102888.56;5000265;28;20097;-84
2022/01/25 02:01:58;;;;;;;72.15;43.90;;;;;;;3.44;100.00;102897.38;5007643;28;20073;-84
2022/01/25 02:04:24;;;;;;;74.88;46.13;;;;;;;3.43;100.00;102895.69;5000280;28;20050;-84
2022/01/25 02:06:50;;;;;;;77.53;46.67;;;;;;;3.44;100.00;102897.38;4993431;28;20133;-84
2022/01/25 02:09:16;;;;;;;82.20;47.58;;;;;;;3.41;100.00;102897.53;5005760;28;20121;-84
2022/01/25 02:11:43;;;;;;;75.93;47.13;;;;;;;3.36;100.00;102898.56;5004810;28;20041;-84
2022/01/25 02:14:12;;;;;;;79.35;47.17;;;;;;;3.39;100.00;102901.13;4989453;28;20665;-84
2022/01/25 02:24:47;;;;;;;79.55;48.47;;;;;;;3.36;100.00;102895.91;5000602;28;20088;-84
2022/01/25 02:27:15;;;;;;;82.82;50.38;;;;;;;3.38;100.00;102894.06;5000692;28;20399;-84
2022/01/25 02:29:43;;;;;;;82.53;50.97;;;;;;;3.37;100.00;102884.38;5005487;28;20034;-84
2022/01/25 02:32:09;;;;;;;84.32;51.47;;;;;;;3.34;100.00;102881.88;5007106;28;22422;-84
2022/01/25 02:34:34;;;;;;;87.95;51.42;;;;;;;3.35;100.00;102878.28;5004645;28;20050;-85
2022/01/25 02:37:12;;;;;;;84.70;51.05;;;;;;;3.35;100.00;102882.72;5002582;28;20054;-84
2022/01/25 02:39:51;;;;;;;87.45;53.90;;;;;;;3.35;100.00;102877.41;4990320;28;20490;-84
2022/01/25 02:42:17;;;;;;;85.63;49.50;;;;;;;3.33;100.00;102876.63;4990964;28;20125;-84
2022/01/25 02:44:48;;;;;;;83.60;50.45;;;;;;;3.34;100.00;102875.72;5000069;28;20125;-85
2022/01/25 02:50:04;;;;;;;88.97;52.65;;;;;;;3.32;100.00;102869.59;4992189;28;20065;-84
2022/01/25 02:52:35;;;;;;;87.65;49.42;;;;;;;3.29;100.00;102865.28;5005788;28;20046;-83
2022/01/25 02:55:04;;;;;;;84.65;50.85;;;;;;;3.26;100.00;102878.69;4990671;28;20045;-84
2022/01/25 02:57:32;;;;;;;90.80;51.75;;;;;;;3.26;100.00;102876.03;5005313;28;20054;-85
2022/01/25 03:00:05;;;;;;;88.65;53.58;;;;;;;3.28;100.00;102873.28;4998681;28;20495;-85
2022/01/25 03:02:32;;;;;;;88.50;50.20;;;;;;;3.25;100.00;102871.66;4999860;28;20157;-83
2022/01/25 03:04:57;;;;;;;84.82;50.72;;;;;;;3.22;100.00;102873.56;4997609;28;20041;-85
2022/01/25 03:07:23;;;;;;;86.10;50.45;;;;;;;3.22;100.00;102876.22;5006872;28;20535;-84
2022/01/25 03:09:51;;;;;;;82.88;48.50;;;;;;;3.20;100.00;102876.28;4980833;28;20058;-84
2022/01/25 03:12:19;;;;;;;84.05;48.80;;;;;;;3.23;100.00;102876.16;4995490;28;20051;-84
2022/01/25 03:15:23;;;;;;;85.30;49.38;;;;;;;3.25;100.00;102874.31;5000004;28;20046;-84
2022/01/25 03:17:54;;;;;;;84.00;48.20;;;;;;;3.23;100.00;102865.53;5000256;28;20054;-83
2022/01/25 03:20:49;;;;;;;78.85;47.88;;;;;;;3.25;100.00;102871.66;4998057;28;20042;-84
2022/01/25 03:23:21;;;;;;;84.18;46.13;;;;;;;3.23;100.00;102865.53;4971702;28;20065;-84
2022/01/25 03:25:48;;;;;;;81.82;47.95;;;;;;;3.22;100.00;102862.94;4979187;28;20125;-83
2022/01/25 03:28:15;;;;;;;80.05;46.47;;;;;;;3.23;100.00;102864.69;5011381;28;20046;-84
2022/01/25 03:30:41;;;;;;;79.82;47.75;;;;;;;3.23;100.00;102862.88;5004728;28;20038;-84
2022/01/25 03:33:07;;;;;;;79.15;47.72;;;;;;;3.24;100.00;102854.00;5000826;28;20042;-83
2022/01/25 03:35:32;;;;;;;80.45;48.45;;;;;;;3.22;100.00;102855.84;5002748;28;20050;-84
2022/01/25 03:37:58;;;;;;;80.68;46.58;;;;;;;3.20;100.00;102852.41;4994110;28;20058;-84
2022/01/25 03:40:23;;;;;;;79.53;45.85;;;;;;;3.22;100.00;102849.69;4994968;28;20038;-84
2022/01/25 03:42:49;;;;;;;82.40;47.55;;;;;;;3.15;100.00;102849.09;5005426;28;20052;-84
2022/01/25 03:45:21;;;;;;;81.82;47.13;;;;;;;3.13;100.00;102848.28;4999715;28;20049;-84
2022/01/25 03:49:48;;;;;;;72.82;43.35;;;;;;;3.13;100.00;102842.97;5001661;28;20084;-84
2022/01/25 03:50:45;;;;;;;66.40;34.00;;;;;;;3.12;100.00;102843.91;4992439;28;20121;-85
2022/01/25 03:53:12;;;;;;;66.15;40.50;;;;;;;3.15;100.00;102849.09;5018852;28;20398;-85
2022/01/25 03:55:39;;;;;;;71.25;42.13;;;;;;;3.20;100.00;102848.91;4997338;28;20049;-85
2022/01/25 03:58:10;;;;;;;70.72;40.72;;;;;;;3.25;100.00;102839.81;5000764;28;20058;-84
2022/01/25 04:00:39;;;;;;;69.53;41.05;;;;;;;3.24;100.00;102848.69;5007555;28;20041;-85
2022/01/25 04:03:14;;;;;;;73.25;42.83;;;;;;;3.23;100.00;102851.41;5002082;28;20064;-85
2022/01/25 04:08:09;;;;;;;77.38;44.65;;;;;;;3.21;100.00;102848.81;4999866;28;20054;-84
2022/01/25 04:10:37;;;;;;;75.70;42.70;;;;;;;3.20;100.00;102844.44;5003125;28;20092;-85
2022/01/25 04:13:04;;;;;;;76.18;44.08;;;;;;;3.20;100.00;102849.75;5013703;28;20049;-84
2022/01/25 04:15:30;;;;;;;77.55;44.80;;;;;;;3.20;100.00;102844.44;4984588;28;20038;-84
2022/01/25 04:18:14;;;;;;;69.00;39.65;;;;;;;3.13;100.00;102842.97;4985607;28;20529;-84
2022/01/25 04:21:12;;;;;;;69.97;39.15;;;;;;;3.13;100.00;102848.28;5001017;28;20049;-84
2022/01/25 04:26:26;;;;;;;66.65;35.70;;;;;;;3.13;100.00;102840.31;5001077;28;20100;-84
2022/01/25 04:28:51;;;;;;;66.20;38.92;;;;;;;3.21;100.00;102842.66;5000819;28;20046;-84
2022/01/25 04:31:20;;;;;;;69.32;41.85;;;;;;;3.26;100.00;102841.53;4977886;28;20190;-85
2022/01/25 04:34:26;;;;;;;71.25;42.40;;;;;;;3.25;100.00;102836.28;5006860;28;20441;-84
2022/01/25 04:48:52;;;;;;;69.15;39.55;;;;;;;3.19;100.00;102834.75;4990497;28;20041;-84
2022/01/25 04:51:10;;;;;;;64.00;33.70;;;;;;;3.14;100.00;102839.41;4991723;28;20048;-84
2022/01/25 04:53:54;;;;;;;66.38;36.17;;;;;;;3.13;100.00;102833.22;4999729;28;20049;-85
2022/01/25 04:56:37;;;;;;;74.00;42.08;;;;;;;3.15;100.00;102838.47;5001660;28;20091;-84
2022/01/25 04:59:24;;;;;;;77.13;43.88;;;;;;;3.12;100.00;102841.25;5004841;28;20058;-84
2022/01/25 05:01:53;;;;;;;74.00;40.97;;;;;;;3.10;100.00;102838.66;5002818;28;20125;-85
2022/01/25 05:04:27;;;;;;;;;;;;;;;3.08;100.00;102840.53;4983651;28;20093;-84
2022/01/25 05:06:55;;;;;;;77.00;44.58;;;;;;;3.02;100.00;102840.81;5003714;28;19972;-83
2022/01/25 05:09:21;;;;;;;85.80;47.80;;;;;;;3.04;100.00;102848.69;4996563;28;20038;-84
2022/01/25 05:11:50;;;;;;;84.15;48.22;;;;;;;3.07;100.00;102851.19;4998988;28;20046;-83
2022/01/25 05:14:24;;;;;;;86.07;46.35;;;;;;;3.10;100.00;102845.75;4984618;28;20116;-84
2022/01/25 05:16:55;;;;;;;86.45;49.30;;;;;;;3.06;100.00;102846.84;5001314;28;20092;-84
2022/01/25 05:24:40;;;;;;;83.07;48.88;;;;;;;3.07;100.00;102841.44;5004732;28;20045;-84
2022/01/25 05:27:07;;;;;;;83.20;47.55;;;;;;;3.07;100.00;102843.25;5016257;28;20042;-84
2022/01/25 05:29:33;;;;;;;86.63;50.08;;;;;;;3.10;100.00;102846.63;5005641;28;20060;-84
2022/01/25 05:31:59;;;;;;;86.18;46.97;;;;;;;3.08;100.00;102845.84;4973776;28;20129;-85
2022/01/25 05:34:25;;;;;;;85.22;47.75;;;;;;;3.07;100.00;102840.59;5000707;28;20069;-84
2022/01/25 05:36:50;;;;;;;85.57;48.38;;;;;;;3.06;100.00;102849.50;5004322;28;20045;-85
2022/01/25 05:39:21;;;;;;;89.10;48.65;;;;;;;3.04;100.00;102843.38;4992760;28;20129;-84
2022/01/25 05:41:54;;;;;;;90.03;49.95;;;;;;;3.05;100.00;102843.31;5007061;28;20046;-85
2022/01/25 05:47:05;;;;;;;;;;;;;;;3.04;100.00;102849.53;5010538;28;20042;-84
2022/01/25 05:49:36;;;;;;;86.43;47.17;;;;;;;2.96;100.00;102845.47;5017441;28;19917;-84
2022/01/25 05:52:04;;;;;;;89.00;48.92;;;;;;;2.95;100.00;102844.63;5006712;28;20052;-85
2022/01/25 05:54:29;;;;;;;85.03;47.22;;;;;;;2.97;100.00;102845.44;5005881;28;20126;-85
2022/01/25 05:56:55;;;;;;;88.40;49.90;;;;;;;3.00;100.00;102847.97;5003453;28;20034;-85
2022/01/25 05:59:20;;;;;;;89.95;49.38;;;;;;;3.00;100.00;102837.34;4990651;28;20038;-85
2022/01/25 06:01:48;;;;;;;89.78;48.55;;;;;;;3.00;100.00;102841.78;5005361;28;20144;-85
2022/01/25 06:04:14;;;;;;;85.72;48.45;;;;;;;3.01;100.00;102846.16;4991420;28;20042;-85
2022/01/25 06:06:41;;;;;;;85.28;44.05;;;;;;;2.96;100.00;102843.69;4976938;28;20034;-85
2022/01/25 06:09:08;;;;;;;82.68;43.88;;;;;;;2.92;100.00;102840.31;4989804;28;20057;-85
2022/01/25 06:11:45;;;;;;;88.57;46.58;;;;;;;2.96;100.00;102837.53;5002837;28;20050;-85
2022/01/25 06:14:12;;;;;;;93.00;49.85;;;;;;;2.98;100.00;102838.34;4987766;28;20069;-85
2022/01/25 06:16:42;;;;;;;91.63;49.88;;;;;;;2.94;100.00;102840.25;4993297;28;20549;-85
2022/01/25 06:19:08;;;;;;;91.65;51.10;;;;;;;2.93;100.00;102833.22;5001123;28;20054;-86
2022/01/25 06:21:33;;;;;;;88.90;51.13;;;;;;;2.91;100.00;102835.94;5009799;28;20042;-85
2022/01/25 06:24:00;;;;;;;94.80;51.05;;;;;;;2.93;100.00;102846.47;5001458;28;20048;-85
2022/01/25 06:26:32;;;;;;;85.90;47.50;;;;;;;2.92;100.00;102842.97;5007553;28;20054;-84
2022/01/25 06:29:07;;;;;;;85.35;47.72;;;;;;;2.92;100.00;102835.00;5014553;28;20077;-84
2022/01/25 06:31:32;;;;;;;93.07;49.03;;;;;;;2.89;100.00;102842.25;5015099;28;20046;-84
2022/01/25 06:33:58;;;;;;;98.43;51.22;;;;;;;2.90;100.00;102843.94;5022739;28;20129;-84
2022/01/25 06:36:26;;;;;;;95.05;51.03;;;;;;;2.90;100.00;102843.94;5003602;28;20038;-84
2022/01/25 06:39:00;;;;;;;94.70;51.65;;;;;;;2.90;100.00;102844.81;5016345;28;20050;-84
2022/01/25 06:41:26;;;;;;;93.65;51.03;;;;;;;2.88;100.00;102846.69;5020730;28;20049;-85
2022/01/25 06:44:05;;;;;;;92.75;49.35;;;;;;;2.89;100.00;102843.09;4986287;28;20049;-84
2022/01/25 06:46:31;;;;;;;;;;;;;;;2.90;100.00;102843.94;4988897;28;20042;-84
2022/01/25 06:49:03;;;;;;;92.75;49.75;;;;;;;2.83;100.00;102847.81;5032006;28;19913;-84
2022/01/25 06:51:30;;;;;;;89.72;46.38;;;;;;;2.82;100.00;102841.66;5007220;28;20038;-84
2022/01/25 06:54:01;;;;;;;90.60;45.40;;;;;;;2.82;100.00;102841.66;4999817;28;20030;-84
2022/01/25 06:56:26;;;;;;;84.30;45.95;;;;;;;2.83;100.00;102838.06;5004395;28;20054;-87
2022/01/25 06:58:53;;;;;;;90.07;46.50;;;;;;;2.85;100.00;102836.22;5007933;28;20050;-86
2022/01/25 07:01:20;;;;;;;87.00;48.10;;;;;;;2.87;100.00;102838.78;4996312;28;20042;-86
2022/01/25 07:03:47;;;;;;;87.60;46.30;;;;;;;2.83;100.00;102848.66;4993111;28;20129;-88
2022/01/25 07:06:13;;;;;;;90.95;47.63;;;;;;;2.85;100.00;102852.13;4964656;28;20061;-88
2022/01/25 07:08:44;;;;;;;85.78;45.58;;;;;;;2.86;100.00;102848.53;4981360;28;20043;-86
2022/01/25 07:11:16;;;;;;;83.75;44.03;;;;;;;2.82;100.00;102852.25;4985726;28;20046;-87
2022/01/25 07:13:47;;;;;;;87.00;45.55;;;;;;;2.83;100.00;102847.81;4966968;28;20054;-87
2022/01/25 07:16:19;;;;;;;84.07;44.13;;;;;;;2.83;100.00;102850.47;4968011;28;20062;-88
2022/01/25 07:18:45;;;;;;;76.88;41.33;;;;;;;2.82;100.00;102852.25;4999370;28;20078;-86
2022/01/25 07:21:16;;;;;;;81.47;38.83;;;;;;;2.81;100.00;102849.66;4984523;28;20483;-89
2022/01/25 07:23:41;;;;;;;80.85;46.50;;;;;;;2.85;100.00;102853.88;4974817;28;20133;-87
2022/01/25 07:26:11;;;;;;;82.32;46.30;;;;;;;2.86;100.00;102852.97;4987937;28;20116;-87
2022/01/25 07:28:37;;;;;;;80.47;44.00;;;;;;;2.86;100.00;102848.53;5002777;28;20038;-87
2022/01/25 07:31:09;;;;;;;74.32;41.97;;;;;;;2.87;100.00;102850.25;5004630;28;20105;-86
2022/01/25 07:33:41;;;;;;;81.72;44.45;;;;;;;2.86;100.00;102853.84;4992734;28;20060;-88
2022/01/25 07:36:07;;;;;;;81.80;41.55;;;;;;;2.85;100.00;102854.78;5002402;28;20042;-86
2022/01/25 07:38:42;;;;;;;77.65;41.75;;;;;;;2.84;100.00;102846.88;4993034;28;20053;-87
2022/01/25 07:41:12;;;;;;;81.65;42.20;;;;;;;2.84;100.00;102853.03;5007064;28;20124;-88
2022/01/25 07:43:46;;;;;;;77.93;44.00;;;;;;;2.83;100.00;102843.34;4998284;28;20042;-87
2022/01/25 07:46:15;;;;;;;78.35;43.70;;;;;;;2.87;100.00;102855.53;5003553;28;20501;-88
2022/01/25 07:48:41;;;;;;;;;;;;;;;2.83;100.00;102850.47;4993028;28;20422;-87
2022/01/25 07:51:07;;;;;;;83.85;44.60;;;;;;;2.76;100.00;102851.63;5003214;28;19918;-89
2022/01/25 07:53:37;;;;;;;79.50;43.65;;;;;;;2.77;100.00;102853.38;5022054;28;20044;-88
2022/01/25 07:56:04;;;;;;;83.75;44.83;;;;;;;2.78;100.00;102863.03;4973500;28;20074;-88
2022/01/25 07:58:30;;;;;;;84.90;45.65;;;;;;;2.82;100.00;102860.19;5010179;28;20058;-87
2022/01/25 08:01:04;;;;;;;83.32;45.00;;;;;;;2.81;100.00;102855.81;5002207;28;20495;-87
2022/01/25 08:03:34;;;;;;;85.00;45.92;;;;;;;2.81;100.00;102861.13;5016422;28;20061;-89
2022/01/25 08:06:02;;;;;;;81.15;42.45;;;;;;;2.79;100.00;102868.28;4976869;28;20049;-87
2022/01/25 08:08:28;;;;;;;77.88;42.75;;;;;;;2.81;100.00;102866.41;5007061;28;20057;-87
2022/01/25 08:11:02;;;;;;;85.40;46.55;;;;;;;2.83;100.00;102869.88;5000249;28;20046;-86
2022/01/25 08:13:32;;;;;;;82.90;42.13;;;;;;;2.78;100.00;102871.84;5002075;28;20502;-87
2022/01/25 08:15:59;;;;;;;80.53;42.13;;;;;;;2.82;100.00;102875.22;5002503;28;20054;-87
2022/01/25 08:18:26;;;;;;;80.38;43.38;;;;;;;2.85;100.00;102875.09;5007836;28;20053;-87
2022/01/25 08:20:53;;;;;;;79.07;43.95;;;;;;;2.85;100.00;102876.00;4998801;28;20491;-88
2022/01/25 08:23:20;;;;;;;79.07;41.38;;;;;;;2.79;100.00;102873.59;5017741;28;20065;-88
2022/01/25 08:25:48;;;;;;;74.47;38.35;;;;;;;2.78;100.00;102873.63;5005648;28;20060;-87
2022/01/25 08:28:20;;;;;;;78.45;42.22;;;;;;;2.86;100.00;102877.69;4998040;28;20049;-87
2022/01/25 08:30:47;;;;;;;87.05;43.30;;;;;;;2.88;100.00;102878.50;4984908;28;20065;-87
2022/01/25 08:33:19;;;;;;;82.15;43.20;;;;;;;2.84;100.00;102876.03;4984681;28;20088;-88
2022/01/25 08:35:45;;;;;;;75.45;41.70;;;;;;;2.81;100.00;102874.38;4981866;28;20061;-88
2022/01/25 08:38:14;;;;;;;74.75;39.67;;;;;;;2.79;100.00;102878.91;4979313;28;20775;-87
2022/01/25 08:40:40;;;;;;;75.80;41.45;;;;;;;2.85;100.00;102883.94;4975483;28;20158;-88
2022/01/25 08:43:11;;;;;;;82.70;42.72;;;;;;;2.86;100.00;102880.34;4964465;28;20042;-88
2022/01/25 08:45:42;;;;;;;82.30;44.47;;;;;;;2.86;100.00;102877.69;4972238;28;20046;-87
2022/01/25 08:48:15;;;;;;;79.60;44.42;;;;;;;2.86;100.00;102883.00;4967853;28;20050;-87
2022/01/25 08:50:44;;;;;;;80.47;44.28;;;;;;;2.85;100.00;102883.94;4980463;28;20105;-86
2022/01/25 08:53:16;;;;;;;79.05;41.85;;;;;;;2.89;100.00;102884.66;4982761;28;20057;-88
2022/01/25 08:55:43;;;;;;;77.00;42.88;;;;;;;2.89;100.00;102888.19;4997178;28;20093;-89
2022/01/25 08:58:15;;;;;;;76.93;42.42;;;;;;;2.90;100.00;102881.94;4963509;28;20070;-88
2022/01/25 09:00:42;;;;;;;77.68;41.25;;;;;;;2.85;100.00;102883.94;4973501;28;20050;-88
2022/01/25 09:03:11;;;;;;;79.78;42.65;;;;;;;2.88;100.00;102883.81;4981531;28;20051;-88
2022/01/25 09:05:44;;;;;;;78.30;43.65;;;;;;;2.87;100.00;102892.69;4985494;28;20125;-88
2022/01/25 09:08:16;;;;;;;79.00;42.85;;;;;;;2.90;100.00;102887.25;4981455;28;20041;-87
2022/01/25 09:10:41;;;;;;;82.43;42.35;;;;;;;2.91;100.00;102889.00;5002178;28;20045;-87
2022/01/25 09:13:08;;;;;;;81.47;44.67;;;;;;;2.90;100.00;102897.00;4999589;28;20473;-87
2022/01/25 09:15:34;;;;;;;77.97;40.42;;;;;;;2.90;100.00;102889.03;5004183;28;20046;-87
2022/01/25 09:18:09;;;;;;;77.82;40.42;;;;;;;2.86;100.00;102896.25;4985306;28;20050;-88
2022/01/25 09:21:02;;;;;;;80.18;44.85;;;;;;;2.88;100.00;102894.44;4997743;28;20074;-88
2022/01/25 09:23:38;;;;;;;72.78;40.83;;;;;;;2.86;100.00;102896.25;5003484;28;20137;-87
2022/01/25 09:26:06;;;;;;;77.03;42.60;;;;;;;2.84;100.00;102898.09;5000400;28;20073;-87
2022/01/25 09:28:33;;;;;;;76.65;42.58;;;;;;;2.91;100.00;102899.59;4995084;28;20047;-88
2022/01/25 09:31:04;;;;;;;76.22;42.22;;;;;;;2.92;100.00;102893.34;5000446;28;20065;-88
2022/01/25 09:33:30;;;;;;;79.20;41.95;;;;;;;2.91;100.00;102896.94;5017802;28;20046;-87
2022/01/25 09:36:02;;;;;;;82.07;44.38;;;;;;;2.93;100.00;102897.75;5008712;28;20053;-88
2022/01/25 09:38:32;;;;;;;79.05;42.95;;;;;;;2.90;100.00;102897.84;5005996;28;20394;-87
2022/01/25 09:40:57;;;;;;;79.10;42.58;;;;;;;2.88;100.00;102905.03;4999936;28;20034;-88
2022/01/25 09:43:25;;;;;;;77.63;42.45;;;;;;;2.92;100.00;102914.56;5004963;28;20045;-89
2022/01/25 09:45:52;;;;;;;74.43;42.08;;;;;;;2.96;100.00;102907.34;4987813;28;20135;-89
2022/01/25 09:48:18;;;;;;;80.20;40.80;;;;;;;2.93;100.00;102918.09;4998829;28;20042;-87
2022/01/25 09:50:57;;;;;;;75.60;41.63;;;;;;;2.94;100.00;102914.53;4996286;28;20106;-89
2022/01/25 09:53:25;;;;;;;78.25;43.15;;;;;;;2.90;100.00;102919.06;4968884;28;20545;-88
2022/01/25 09:55:58;;;;;;;71.97;42.13;;;;;;;2.90;100.00;102916.41;5002080;28;20069;-87
2022/01/25 09:58:31;;;;;;;77.05;44.30;;;;;;;2.86;100.00;102919.28;5005000;28;20506;-87
2022/01/25 10:01:00;;;;;;;76.05;41.97;;;;;;;2.85;100.00;102921.06;4972349;28;20914;-89
2022/01/25 10:03:35;;;;;;;76.03;41.45;;;;;;;2.91;100.00;102920.81;4999662;28;20128;-88
2022/01/25 10:06:10;;;;;;;78.20;43.10;;;;;;;2.90;100.00;102920.88;4986785;28;20045;-89
2022/01/25 10:08:39;;;;;;;76.78;43.13;;;;;;;2.88;100.00;102920.09;5000663;28;20123;-87
2022/01/25 10:11:23;;;;;;;;;;;;;;;2.90;100.00;102921.72;5013273;28;20050;-87
2022/01/25 10:14:12;;;;;;;79.68;39.13;;;;;;;2.83;100.00;102914.09;5040265;28;19917;-89
2022/01/25 10:16:43;;;;;;;75.35;40.90;;;;;;;2.88;100.00;102922.75;5020602;28;20386;-88
2022/01/25 10:19:15;;;;;;;76.88;36.75;;;;;;;2.88;100.00;102920.94;5007613;28;20045;-88
2022/01/25 10:22:00;;;;;;;74.00;36.90;;;;;;;2.91;100.00;102920.81;5011478;28;20033;-87
2022/01/25 10:24:29;;;;;;;76.18;41.58;;;;;;;2.87;100.00;102916.53;4963187;28;20042;-86
2022/01/25 10:27:00;;;;;;;77.22;41.92;;;;;;;2.87;100.00;102913.88;4996621;28;20058;-89
2022/01/25 10:29:36;;;;;;;76.35;43.47;;;;;;;2.89;100.00;102917.34;5011712;28;20103;-88
2022/01/25 10:32:13;;;;;;;76.13;43.13;;;;;;;2.90;100.00;102921.72;4999552;28;20042;-88
2022/01/25 10:34:49;;;;;;;79.00;42.92;;;;;;;2.96;100.00;102919.75;5002873;28;20037;-89
2022/01/25 10:37:17;;;;;;;77.90;41.60;;;;;;;2.98;100.00;102915.25;4987203;28;20042;-88
2022/01/25 10:39:47;;;;;;;79.10;42.28;;;;;;;3.01;100.00;102912.47;4999943;28;20042;-89
2022/01/25 10:42:28;;;;;;;74.80;39.70;;;;;;;3.03;100.00;102926.53;4999273;28;20511;-87
2022/01/25 10:44:54;;;;;;;75.45;39.63;;;;;;;3.02;100.00;102916.84;4999570;28;20069;-88
2022/01/25 10:47:40;;;;;;;82.90;44.35;;;;;;;3.04;100.00;102921.16;5005033;28;20143;-88
2022/01/25 10:50:23;;;;;;;76.78;42.10;;;;;;;3.01;100.00;102926.59;5001964;28;20046;-86
2022/01/25 10:53:10;;;;;;;77.25;42.20;;;;;;;3.07;100.00;102922.81;5011898;28;20588;-88
2022/01/25 10:55:53;;;;;;;74.72;42.28;;;;;;;3.10;100.00;102931.50;4998299;28;20044;-88
2022/01/25 10:58:21;;;;;;;75.90;43.15;;;;;;;3.06;100.00;102931.72;4988379;28;20046;-88
2022/01/25 11:00:53;;;;;;;78.45;45.35;;;;;;;3.08;100.00;102933.38;4995337;28;20498;-87
2022/01/25 11:03:42;;;;;;;75.03;41.60;;;;;;;3.04;100.00;102938.88;4991930;28;20046;-87
2022/01/25 11:06:18;;;;;;;78.22;43.58;;;;;;;3.06;100.00;102939.69;5001925;28;20045;-88
2022/01/25 11:08:50;;;;;;;77.13;41.67;;;;;;;3.07;100.00;102933.44;4986578;28;20041;-88
2022/01/25 11:11:32;;;;;;;78.93;41.50;;;;;;;3.07;100.00;102938.75;5007557;28;20042;-87
2022/01/25 11:14:49;;;;;;;76.05;42.20;;;;;;;3.09;100.00;102944.84;4997388;28;20503;-87
2022/01/25 11:16:46;;;;;;;74.35;41.08;;;;;;;3.09;100.00;102935.09;5003466;28;20399;-87
2022/01/25 11:19:12;;;;;;;79.95;41.25;;;;;;;3.10;100.00;102926.22;5007394;28;20050;-88
2022/01/25 11:21:38;;;;;;;74.47;38.92;;;;;;;3.11;100.00;102927.94;4991655;28;20115;-88
2022/01/25 11:24:04;;;;;;;78.70;42.58;;;;;;;3.12;100.00;102923.50;5003660;28;20438;-88
2022/01/25 11:26:35;;;;;;;78.22;43.00;;;;;;;3.14;100.00;102932.28;5005115;28;20442;-89
2022/01/25 11:29:02;;;;;;;76.00;42.10;;;;;;;3.13;100.00;102925.22;5013132;28;20046;-87
2022/01/25 11:31:30;;;;;;;79.40;43.55;;;;;;;3.14;100.00;102924.31;5007161;28;20047;-87
2022/01/25 11:33:59;;;;;;;89.85;53.47;;;;;;;3.14;100.00;102925.16;4988528;28;20056;-87
2022/01/25 11:36:25;;;;;;;87.40;49.70;;;;;;;3.06;100.00;102921.97;5002277;28;20057;-88
2022/01/25 11:38:56;;;;;;;114.35;71.65;;;;;;;3.05;100.00;102927.31;5002680;28;20089;-87
2022/01/25 11:41:25;;;;;;;196.43;120.47;;;;;;;3.01;100.00;102929.25;5004511;28;20468;-88
2022/01/25 11:44:12;;;;;;;122.78;69.72;;;;;;;3.03;100.00;102918.59;4966044;28;20049;-87
2022/01/25 11:46:55;;;;;;;80.07;43.20;;;;;;;3.00;100.00;102914.28;4981135;28;20137;-87
2022/01/25 11:49:23;;;;;;;81.80;45.05;;;;;;;2.98;100.00;102918.75;4966431;28;20396;-88
2022/01/25 11:52:12;;;;;;;93.03;52.45;;;;;;;3.03;100.00;102910.63;4970043;28;20052;-88
2022/01/25 11:54:41;;;;;;;96.32;54.35;;;;;;;3.01;100.00;102905.38;4987463;28;20069;-87
2022/01/25 11:57:13;;;;;;;75.32;42.03;;;;;;;3.01;100.00;102909.81;5003156;28;20042;-89
2022/01/25 11:59:43;;;;;;;90.32;51.92;;;;;;;2.97;100.00;102924.16;4971405;28;20045;-89
2022/01/25 12:02:09;;;;;;;86.90;45.45;;;;;;;3.01;100.00;102912.47;5001519;28;20130;-88
2022/01/25 12:04:36;;;;;;;93.70;49.58;;;;;;;3.06;100.00;102911.34;4983819;28;20454;-87
2022/01/25 12:07:24;;;;;;;79.65;45.25;;;;;;;3.02;100.00;102911.53;4998541;28;20459;-87
2022/01/25 12:10:02;;;;;;;75.13;42.35;;;;;;;3.02;100.00;102895.63;5002801;28;20038;-88
2022/01/25 12:12:29;;;;;;;78.63;43.77;;;;;;;2.99;100.00;102901.91;5000837;28;20045;-87
2022/01/25 12:14:56;;;;;;;82.05;46.65;;;;;;;2.98;100.00;102899.34;5022280;28;20046;-87
2022/01/25 12:17:27;;;;;;;82.53;47.55;;;;;;;2.99;100.00;102899.25;4987648;28;20384;-88
2022/01/25 12:19:58;;;;;;;89.65;50.15;;;;;;;3.05;100.00;102900.78;5002076;28;20046;-89
2022/01/25 12:25:34;;;;;;;96.18;52.88;;;;;;;3.06;100.00;102887.47;4997319;28;20053;-87
2022/01/25 12:28:41;;;;;;;94.95;52.13;;;;;;;3.03;100.00;102881.44;4990325;28;20037;-86
2022/01/25 12:31:15;;;;;;;92.70;49.83;;;;;;;3.06;100.00;102883.97;4981731;28;20077;-87
2022/01/25 12:33:47;;;;;;;78.88;44.45;;;;;;;3.01;100.00;102875.34;4999390;28;20233;-90
2022/01/25 12:36:16;;;;;;;77.38;43.25;;;;;;;3.04;100.00;102870.75;5029009;28;20053;-86
2022/01/25 12:38:51;;;;;;;93.40;48.72;;;;;;;3.06;100.00;102876.00;5007806;28;20054;-88
2022/01/25 12:41:25;;;;;;;88.80;46.63;;;;;;;3.10;100.00;102874.94;4993929;28;20053;-89
2022/01/25 12:43:58;;;;;;;80.47;43.42;;;;;;;3.12;100.00;102867.78;4998731;28;20034;-90
2022/01/25 12:46:29;;;;;;;81.85;44.90;;;;;;;3.10;100.00;102872.28;4968260;28;20057;-87
2022/01/25 12:48:59;;;;;;;81.47;47.53;;;;;;;3.06;100.00;102871.56;4975329;28;20057;-88
2022/01/25 12:51:29;;;;;;;84.88;47.97;;;;;;;3.10;100.00;102864.34;5001504;28;20482;-88
2022/01/25 12:53:56;;;;;;;86.65;47.95;;;;;;;3.07;100.00;102860.00;5037528;28;20046;-88
2022/01/25 12:56:26;;;;;;;83.47;45.40;;;;;;;3.08;100.00;102847.59;4997581;28;20084;-88
2022/01/25 12:58:54;;;;;;;83.03;42.83;;;;;;;3.00;100.00;102847.97;4981716;28;20072;-90
2022/01/25 13:01:23;;;;;;;74.25;37.60;;;;;;;3.00;100.00;102849.75;5037073;28;20062;-87
2022/01/25 13:03:53;;;;;;;74.18;40.08;;;;;;;3.06;100.00;102845.03;5025016;28;20502;-88
2022/01/25 13:06:26;;;;;;;81.78;38.08;;;;;;;3.04;100.00;102844.22;5011032;28;20050;-87
2022/01/25 13:09:09;;;;;;;76.03;39.00;;;;;;;3.06;100.00;102850.34;4987031;28;20498;-88